createdAt,value
2018-07-04T00:00:23.461Z,96895.05
2018-07-04T00:03:03.274Z,96883.55
2018-07-04T00:05:43.133Z,96894.94
2018-07-04T00:08:22.997Z,96883.41
2018-07-04T00:11:02.728Z,96883.30
2018-07-04T00:13:42.517Z,96880.21
2018-07-04T00:16:22.399Z,96873.75
2018-07-04T00:19:02.258Z,96867.35
2018-07-04T00:21:41.971Z,96879.85
2018-07-04T00:24:21.760Z,96874.27
2018-07-04T00:27:01.560Z,96865.33
2018-07-04T00:29:41.407Z,96857.17
2018-07-04T00:32:21.330Z,96856.13
2018-07-04T00:35:01.139Z,96834.42
2018-07-04T00:37:42.046Z,96834.72
2018-07-04T00:40:21.936Z,96831.78
2018-07-04T00:43:01.698Z,96824.84
2018-07-04T00:45:41.490Z,96826.06
2018-07-04T00:48:21.250Z,96830.65
2018-07-04T00:51:00.930Z,96832.74
2018-07-04T00:53:40.902Z,96828.36
2018-07-04T00:56:20.485Z,96185.79
2018-07-04T00:59:00.433Z,96820.91
2018-07-04T01:01:40.241Z,96804.36
2018-07-04T01:04:19.907Z,96804.75
2018-07-04T01:06:59.815Z,96795.25
2018-07-04T01:09:39.534Z,96793.30
2018-07-04T01:12:19.293Z,96800.41
2018-07-04T01:14:59.042Z,96780.88
2018-07-04T01:17:38.800Z,96767.20
2018-07-04T01:20:18.718Z,96760.25
2018-07-04T01:22:58.418Z,96749.99
2018-07-04T01:25:38.027Z,96738.36
2018-07-04T01:28:17.651Z,96720.49
2018-07-04T01:30:57.473Z,96707.33
2018-07-04T01:33:37.172Z,96695.80
2018-07-04T01:36:16.827Z,96687.64
2018-07-04T01:38:56.419Z,96681.53
2018-07-04T01:41:36.125Z,96680.92
2018-07-04T01:44:15.870Z,96661.74
2018-07-04T01:46:55.559Z,96643.06
2018-07-04T01:49:35.298Z,96639.49
2018-07-04T01:52:15.072Z,96637.23
2018-07-04T01:54:54.867Z,96633.71
2018-07-04T01:57:34.560Z,96639.55
2018-07-04T02:00:14.314Z,96652.23
2018-07-04T02:02:54.020Z,96651.86
2018-07-04T02:05:33.833Z,96653.79
2018-07-04T02:08:13.557Z,96651.77
2018-07-04T02:10:53.425Z,96650.96
2018-07-04T02:13:33.089Z,96646.83
2018-07-04T02:16:12.659Z,96633.55
2018-07-04T02:18:52.505Z,96627.44
2018-07-04T02:21:32.297Z,96623.42
2018-07-04T02:24:11.998Z,96627.70
2018-07-04T02:26:51.845Z,96623.34
2018-07-04T02:29:31.466Z,96622.25
2018-07-04T02:32:11.128Z,96620.22
2018-07-04T02:34:53.575Z,96616.80
2018-07-04T02:37:33.235Z,96611.34
2018-07-04T02:40:12.886Z,96607.70
2018-07-04T02:42:52.702Z,96613.03
2018-07-04T02:45:32.486Z,96606.53
2018-07-04T02:48:12.241Z,96607.58
2018-07-04T02:50:51.840Z,96608.67
2018-07-04T02:53:31.632Z,96606.02
2018-07-04T02:56:11.335Z,96600.45
2018-07-04T02:58:50.988Z,96599.91
2018-07-04T03:01:30.661Z,96596.81
2018-07-04T03:04:10.430Z,96592.45
2018-07-04T03:06:50.138Z,96589.86
2018-07-04T03:09:29.790Z,96588.45
2018-07-04T03:12:09.603Z,96592.09
2018-07-04T03:14:49.443Z,96600.31
2018-07-04T03:17:29.130Z,96608.96
2018-07-04T03:20:08.925Z,96615.52
2018-07-04T03:22:48.476Z,96621.21
2018-07-04T03:25:28.045Z,96622.27
2018-07-04T03:28:07.852Z,96631.27
2018-07-04T03:30:47.694Z,96622.30
2018-07-04T03:33:27.362Z,96621.58
2018-07-04T03:36:07.146Z,96639.00
2018-07-04T03:38:46.972Z,96671.68
2018-07-04T03:41:26.960Z,96694.55
2018-07-04T03:44:06.685Z,96708.36
2018-07-04T03:46:46.691Z,96722.41
2018-07-04T03:49:26.610Z,96747.98
2018-07-04T03:52:06.660Z,96794.75
2018-07-04T03:54:46.455Z,96886.78
2018-07-04T03:57:26.206Z,96928.67
2018-07-04T04:00:06.054Z,96949.92
2018-07-04T04:02:45.998Z,97017.78
2018-07-04T04:05:25.655Z,96987.47
2018-07-04T04:08:05.576Z,96907.41
2018-07-04T04:10:45.327Z,96891.61
2018-07-04T04:13:24.999Z,96913.20
2018-07-04T04:16:04.656Z,96938.73
2018-07-04T04:18:44.480Z,96919.61
2018-07-04T04:21:24.221Z,96982.75
2018-07-04T04:24:03.945Z,97009.48
2018-07-04T04:26:43.556Z,96990.70
2018-07-04T04:29:23.336Z,96943.29
2018-07-04T04:32:03.085Z,96964.58
2018-07-04T04:34:42.934Z,97025.19
2018-07-04T04:37:22.751Z,97108.72
2018-07-04T04:40:02.388Z,97156.53
2018-07-04T04:42:42.194Z,97210.92
2018-07-04T04:45:21.813Z,97260.41
2018-07-04T04:48:01.437Z,97223.19
2018-07-04T04:50:41.010Z,97148.58
2018-07-04T04:53:20.834Z,97096.77
2018-07-04T04:56:00.638Z,97080.36
2018-07-04T04:58:40.312Z,97074.05
2018-07-04T05:01:20.090Z,97082.37
2018-07-04T05:03:59.846Z,97117.61
2018-07-04T05:06:39.548Z,97162.34
2018-07-04T05:09:19.284Z,97193.16
2018-07-04T05:11:59.176Z,97233.48
2018-07-04T05:14:39.020Z,97292.60
2018-07-04T05:17:18.652Z,97339.36
2018-07-04T05:19:58.256Z,97356.90
2018-07-04T05:22:38.027Z,97359.14
2018-07-04T05:25:17.663Z,97359.67
2018-07-04T05:27:57.529Z,97369.55
2018-07-04T05:30:37.191Z,97369.02
2018-07-04T05:33:16.949Z,97364.55
2018-07-04T05:35:56.684Z,97361.77
2018-07-04T05:38:36.281Z,97358.58
2018-07-04T05:41:15.936Z,97338.12
2018-07-04T05:43:55.751Z,97342.11
2018-07-04T05:46:35.490Z,97336.05
2018-07-04T05:49:15.110Z,97336.76
2018-07-04T05:51:54.849Z,97332.00
2018-07-04T05:54:34.716Z,97347.21
2018-07-04T05:57:14.546Z,97359.69
2018-07-04T05:59:54.372Z,97365.09
2018-07-04T06:02:34.027Z,97381.34
2018-07-04T06:05:13.802Z,97387.70
2018-07-04T06:07:53.608Z,97390.19
2018-07-04T06:10:34.397Z,97395.81
2018-07-04T06:13:13.986Z,97394.85
2018-07-04T06:15:54.004Z,97397.74
2018-07-04T06:18:33.745Z,97398.25
2018-07-04T06:21:13.474Z,97378.91
2018-07-04T06:23:53.329Z,97357.31
2018-07-04T06:26:33.296Z,97353.97
2018-07-04T06:29:13.063Z,97361.61
2018-07-04T06:31:53.424Z,97372.17
2018-07-04T06:34:33.538Z,97363.96
2018-07-04T06:37:13.601Z,97358.94
2018-07-04T06:39:41.152Z,97363.46
2018-07-04T06:42:08.665Z,97357.03
2018-07-04T06:44:36.070Z,97347.69
2018-07-04T06:47:04.285Z,97353.23
2018-07-04T06:49:32.969Z,97351.97
2018-07-04T06:52:00.342Z,97358.09
2018-07-04T06:54:27.861Z,97356.92
2018-07-04T06:56:55.236Z,97364.02
2018-07-04T06:59:22.624Z,97372.37
2018-07-04T07:01:50.002Z,97107.11
2018-07-04T07:04:29.847Z,97368.01
2018-07-04T07:07:09.646Z,97384.59
2018-07-04T07:09:49.458Z,97392.28
2018-07-04T07:12:29.264Z,97398.77
2018-07-04T07:15:10.053Z,97401.00
2018-07-04T07:17:49.683Z,97399.20
2018-07-04T07:20:29.459Z,97403.86
2018-07-04T07:23:09.239Z,97405.73
2018-07-04T07:25:49.005Z,97407.84
2018-07-04T07:28:28.670Z,97406.55
2018-07-04T07:31:08.579Z,97406.58
2018-07-04T07:33:48.328Z,97405.09
2018-07-04T07:36:28.053Z,97412.06
2018-07-04T07:39:07.838Z,97412.63
2018-07-04T07:41:47.414Z,97411.36
2018-07-04T07:44:27.065Z,97398.84
2018-07-04T07:47:06.857Z,97403.03
2018-07-04T07:49:46.526Z,97395.81
2018-07-04T07:52:26.428Z,97402.86
2018-07-04T07:55:06.238Z,97402.67
2018-07-04T07:57:45.895Z,97399.96
2018-07-04T08:00:25.769Z,97397.08
2018-07-04T08:03:05.741Z,97400.98
2018-07-04T08:05:45.852Z,97394.97
2018-07-04T08:08:25.723Z,97397.10
2018-07-04T08:11:05.626Z,97396.14
2018-07-04T08:13:45.424Z,97404.35
2018-07-04T08:16:25.247Z,97401.23
2018-07-04T08:19:04.948Z,97412.16
2018-07-04T08:21:44.759Z,97406.10
2018-07-04T08:24:24.664Z,97406.98
2018-07-04T08:27:04.449Z,97405.73
2018-07-04T08:29:44.130Z,97400.54
2018-07-04T08:32:23.801Z,97404.81
2018-07-04T08:35:03.629Z,97408.63
2018-07-04T08:37:43.366Z,97403.72
2018-07-04T08:40:23.385Z,97402.07
2018-07-04T08:43:03.121Z,97405.93
2018-07-04T08:45:43.085Z,97402.94
2018-07-04T08:48:22.802Z,97398.46
2018-07-04T08:51:02.563Z,97397.42
2018-07-04T08:53:42.189Z,97401.44
2018-07-04T08:56:21.896Z,97399.72
2018-07-04T08:59:01.814Z,97404.08
2018-07-04T09:01:41.730Z,97405.61
2018-07-04T09:04:21.355Z,97404.46
2018-07-04T09:07:01.167Z,97403.19
2018-07-04T09:09:40.933Z,97403.52
2018-07-04T09:12:20.716Z,97409.72
2018-07-04T09:15:00.579Z,97405.98
2018-07-04T09:17:40.355Z,97407.25
2018-07-04T09:20:20.179Z,97408.97
2018-07-04T09:23:00.072Z,97410.25
2018-07-04T09:25:40.079Z,97417.58
2018-07-04T09:28:19.780Z,97408.11
2018-07-04T09:30:59.604Z,97416.86
2018-07-04T09:33:39.536Z,97418.59
2018-07-04T09:36:19.361Z,97422.05
2018-07-04T09:38:59.208Z,97414.33
2018-07-04T09:41:38.930Z,97418.53
2018-07-04T09:44:18.541Z,97417.20
2018-07-04T09:46:58.409Z,97418.47
2018-07-04T09:49:38.220Z,97418.43
2018-07-04T09:52:17.927Z,97420.56
2018-07-04T09:54:57.729Z,97417.12
2018-07-04T09:57:37.468Z,97416.70
2018-07-04T10:00:21.367Z,97417.20
2018-07-04T10:03:01.262Z,97408.48
2018-07-04T10:05:40.954Z,97407.38
2018-07-04T10:08:20.691Z,97410.34
2018-07-04T10:11:00.393Z,97413.03
2018-07-04T10:13:40.069Z,97413.84
2018-07-04T10:16:19.979Z,97411.58
2018-07-04T10:18:59.890Z,97413.14
2018-07-04T10:21:39.533Z,97409.83
2018-07-04T10:24:19.449Z,97406.56
2018-07-04T10:26:59.264Z,97408.66
2018-07-04T10:29:39.513Z,97410.85
2018-07-04T10:32:19.558Z,97407.27
2018-07-04T10:34:59.437Z,97406.22
2018-07-04T10:37:39.177Z,97405.44
2018-07-04T10:40:18.862Z,97398.72
2018-07-04T10:42:58.466Z,97405.78
2018-07-04T10:45:38.299Z,97409.76
2018-07-04T10:48:18.096Z,97404.31
2018-07-04T10:50:57.862Z,97403.95
2018-07-04T10:53:39.874Z,97402.28
2018-07-04T10:56:19.750Z,97406.59
2018-07-04T10:58:59.619Z,96294.02
2018-07-04T11:01:39.459Z,97390.50
2018-07-04T11:04:19.378Z,97392.99
2018-07-04T11:06:59.399Z,97386.37
2018-07-04T11:09:39.221Z,97381.92
2018-07-04T11:12:18.790Z,97383.14
2018-07-04T11:19:59.476Z,97379.05
2018-07-04T11:22:39.348Z,97381.38
2018-07-04T11:25:19.257Z,97371.76
2018-07-04T11:27:59.235Z,97369.12
2018-07-04T11:30:39.606Z,97363.35
2018-07-04T11:33:19.294Z,97358.16
2018-07-04T11:35:59.054Z,97360.22
2018-07-04T11:38:38.843Z,97354.14
2018-07-04T11:41:18.436Z,97360.19
2018-07-04T11:43:58.318Z,97353.36
2018-07-04T11:46:25.768Z,97347.94
2018-07-04T11:48:53.210Z,97349.39
2018-07-04T11:51:20.666Z,97349.27
2018-07-04T11:53:48.057Z,97352.65
2018-07-04T11:56:15.502Z,97341.75
2018-07-04T11:58:43.256Z,97338.09
2018-07-04T12:01:10.706Z,97347.04
2018-07-04T12:03:51.105Z,97343.30
2018-07-04T12:06:30.969Z,97343.98
2018-07-04T12:08:58.432Z,97335.94
2018-07-04T12:11:25.791Z,97338.38
2018-07-04T12:13:53.229Z,97338.70
2018-07-04T12:16:20.538Z,97345.77
2018-07-04T12:18:47.874Z,97346.19
2018-07-04T12:21:15.199Z,97343.20
2018-07-04T12:23:42.538Z,97338.63
2018-07-04T12:26:09.851Z,97344.47
2018-07-04T12:28:43.553Z,97341.20
2018-07-04T12:31:10.850Z,97344.88
2018-07-04T12:33:38.181Z,97332.69
2018-07-04T12:36:05.481Z,97339.10
2018-07-04T12:38:32.802Z,97334.05
2018-07-04T12:41:00.120Z,97324.62
2018-07-04T12:43:27.490Z,97325.81
2018-07-04T12:45:54.771Z,97326.27
2018-07-04T12:48:22.392Z,97326.64
2018-07-04T12:50:49.701Z,97319.08
2018-07-04T12:53:17.024Z,97297.36
2018-07-04T12:55:56.900Z,97303.46
2018-07-04T12:58:36.372Z,97305.21
2018-07-04T13:01:16.057Z,97310.59
2018-07-04T13:03:55.695Z,97313.13
2018-07-04T13:06:35.572Z,97304.05
2018-07-04T13:09:15.153Z,97304.97
2018-07-04T13:11:55.140Z,97297.98
2018-07-04T13:14:34.785Z,97292.89
2018-07-04T13:17:14.630Z,97297.61
2018-07-04T13:19:54.394Z,97306.58
2018-07-04T13:22:34.230Z,97308.56
2018-07-04T13:25:13.890Z,97310.25
2018-07-04T13:27:53.727Z,97314.13
2018-07-04T13:30:33.457Z,97320.60
2018-07-04T13:33:13.327Z,97325.75
2018-07-04T13:35:53.121Z,97320.96
2018-07-04T13:38:32.858Z,97313.34
2018-07-04T13:41:12.730Z,97306.20
2018-07-04T13:43:52.487Z,97304.49
2018-07-04T13:46:32.243Z,97316.60
2018-07-04T13:49:12.092Z,97309.34
2018-07-04T13:51:51.766Z,97301.17
2018-07-04T13:54:31.522Z,97297.73
2018-07-04T13:57:11.374Z,97286.66
2018-07-04T13:59:51.176Z,97312.22
2018-07-04T14:02:30.843Z,97321.39
2018-07-04T14:05:10.681Z,97315.73
2018-07-04T14:07:50.543Z,97314.77
2018-07-04T14:10:30.275Z,97326.72
2018-07-04T14:13:09.999Z,97328.15
2018-07-04T14:15:49.714Z,97341.84
2018-07-04T14:18:29.488Z,97353.86
2018-07-04T14:21:09.165Z,97360.31
2018-07-04T14:23:48.841Z,97357.63
2018-07-04T14:26:28.488Z,97365.08
2018-07-04T14:29:08.345Z,97360.95
2018-07-04T14:31:48.119Z,97363.81
2018-07-04T14:34:28.102Z,97359.12
2018-07-04T14:37:08.020Z,97363.39
2018-07-04T14:39:47.627Z,97366.60
2018-07-04T14:42:27.441Z,97383.94
2018-07-04T14:45:07.078Z,97391.50
2018-07-04T14:47:46.774Z,97398.50
2018-07-04T14:50:26.520Z,97403.02
2018-07-04T14:53:06.389Z,97402.72
2018-07-04T14:55:46.114Z,97407.75
2018-07-04T14:58:25.841Z,97410.70
2018-07-04T15:01:05.615Z,97399.71
2018-07-04T15:03:45.329Z,97388.83
2018-07-04T15:06:25.112Z,97387.64
2018-07-04T15:09:05.104Z,97368.92
2018-07-04T15:11:44.885Z,97361.32
2018-07-04T15:14:24.880Z,97351.43
2018-07-04T15:17:04.638Z,97350.09
2018-07-04T15:19:44.292Z,97345.41
2018-07-04T15:22:23.868Z,97337.64
2018-07-04T15:25:03.739Z,97331.91
2018-07-04T15:27:43.592Z,97330.55
2018-07-04T15:30:23.326Z,97330.53
2018-07-04T15:33:03.183Z,97320.47
2018-07-04T15:35:43.023Z,97322.47
2018-07-04T15:38:22.797Z,97327.22
2018-07-04T15:41:02.796Z,97325.87
2018-07-04T15:43:42.494Z,97320.70
2018-07-04T15:46:22.435Z,97317.28
2018-07-04T15:49:02.194Z,97322.46
2018-07-04T15:51:41.937Z,97317.74
2018-07-04T15:54:21.695Z,97309.11
2018-07-04T15:57:01.366Z,97316.11
2018-07-04T15:59:41.138Z,97309.64
2018-07-04T16:02:20.813Z,97310.87
2018-07-04T16:05:00.365Z,97307.86
2018-07-04T16:07:40.100Z,97313.52
2018-07-04T16:10:19.534Z,97310.06
2018-07-04T16:12:59.249Z,97307.06
2018-07-04T16:15:38.866Z,97295.44
2018-07-04T16:18:18.572Z,97294.98
2018-07-04T16:20:58.308Z,97292.84
2018-07-04T16:23:38.097Z,97284.22
2018-07-04T16:26:17.885Z,97283.81
2018-07-04T16:28:57.732Z,97285.06
2018-07-04T16:31:37.422Z,97279.44
2018-07-04T16:34:17.304Z,97281.18
2018-07-04T16:36:57.105Z,97262.23
2018-07-04T16:39:36.786Z,97267.02
2018-07-04T16:42:16.543Z,97260.11
2018-07-04T16:44:56.398Z,97259.69
2018-07-04T16:47:36.161Z,97263.95
2018-07-04T16:50:16.033Z,97263.09
2018-07-04T16:52:55.695Z,97251.36
2018-07-04T16:55:35.660Z,97266.70
2018-07-04T16:58:15.417Z,97260.68
2018-07-04T17:00:55.060Z,97256.87
2018-07-04T17:03:34.721Z,97253.41
2018-07-04T17:06:14.478Z,97253.88
2018-07-04T17:08:54.221Z,97261.13
2018-07-04T17:11:34.031Z,97259.83
2018-07-04T17:14:13.890Z,97252.93
2018-07-04T17:16:53.694Z,97256.32
2018-07-04T17:19:33.626Z,97249.79
2018-07-04T17:22:13.326Z,97250.72
2018-07-04T17:24:53.087Z,97248.50
2018-07-04T17:27:32.862Z,97246.84
2018-07-04T17:30:12.543Z,97248.08
2018-07-04T17:32:52.441Z,97255.35
2018-07-04T17:35:32.159Z,97249.27
2018-07-04T17:38:11.895Z,97249.25
2018-07-04T17:40:51.537Z,97237.16
2018-07-04T17:43:31.542Z,97247.37
2018-07-04T17:46:11.345Z,97246.48
2018-07-04T17:48:51.007Z,97244.14
2018-07-04T17:51:30.660Z,97256.02
2018-07-04T17:54:10.380Z,97249.91
2018-07-04T17:56:50.124Z,97250.44
2018-07-04T17:59:29.826Z,97253.83
2018-07-04T18:02:09.679Z,97253.86
2018-07-04T18:04:49.390Z,97259.38
2018-07-04T18:07:29.100Z,97257.65
2018-07-04T18:10:08.921Z,97251.92
2018-07-04T18:12:48.719Z,97248.38
2018-07-04T18:15:28.504Z,97244.78
2018-07-04T18:18:08.291Z,97244.22
2018-07-04T18:20:48.011Z,97185.99
2018-07-04T18:23:27.612Z,97241.50
2018-07-04T18:26:07.349Z,97238.38
2018-07-04T18:28:46.959Z,97236.50
2018-07-04T18:31:26.754Z,97234.52
2018-07-04T18:34:06.465Z,97229.66
2018-07-04T18:36:46.211Z,97215.41
2018-07-04T18:39:25.965Z,97204.94
2018-07-04T18:42:05.742Z,97190.94
2018-07-04T18:44:45.374Z,97189.83
2018-07-04T18:47:25.209Z,97175.09
2018-07-04T18:50:04.894Z,97174.83
2018-07-04T18:52:44.702Z,97172.92
2018-07-04T18:55:24.325Z,97176.43
2018-07-04T18:58:04.142Z,97168.58
2018-07-04T19:00:43.859Z,97150.34
2018-07-04T19:03:23.581Z,97149.25
2018-07-04T19:06:03.294Z,97141.42
2018-07-04T19:08:43.158Z,97139.12
2018-07-04T19:11:22.745Z,97127.86
2018-07-04T19:14:02.358Z,97111.77
2018-07-04T19:16:41.937Z,97104.20
2018-07-04T19:19:21.509Z,97085.58
2018-07-04T19:22:01.083Z,97075.94
2018-07-04T19:24:40.844Z,97064.58
2018-07-04T19:27:20.731Z,96980.08
2018-07-04T19:30:00.397Z,97045.23
2018-07-04T19:32:40.100Z,97046.66
2018-07-04T19:35:19.842Z,97021.64
2018-07-04T19:37:59.541Z,97006.48
2018-07-04T19:40:39.296Z,96980.69
2018-07-04T19:43:19.122Z,96980.90
2018-07-04T19:45:59.034Z,96969.67
2018-07-04T19:48:38.725Z,96963.52
2018-07-04T19:51:18.648Z,96949.67
2018-07-04T19:53:58.350Z,96925.30
2018-07-04T19:56:38.209Z,96892.36
2018-07-04T19:59:17.919Z,96873.68
2018-07-04T20:01:57.706Z,96887.45
2018-07-04T20:04:37.560Z,96915.18
2018-07-04T20:07:17.249Z,96940.36
2018-07-04T20:09:56.922Z,96956.09
2018-07-04T20:12:36.699Z,96962.41
2018-07-04T20:15:16.553Z,96952.08
2018-07-04T20:17:56.166Z,96942.88
2018-07-04T20:20:35.873Z,96925.59
2018-07-04T20:23:15.775Z,96899.37
2018-07-04T20:25:55.731Z,96901.28
2018-07-04T20:28:35.448Z,96892.09
2018-07-04T20:31:15.277Z,96881.27
2018-07-04T20:33:55.139Z,96871.25
2018-07-04T20:36:34.799Z,96877.00
2018-07-04T20:39:14.488Z,96858.49
2018-07-04T20:41:54.178Z,96846.72
2018-07-04T20:44:35.646Z,96838.84
2018-07-04T20:47:15.381Z,96826.73
2018-07-04T20:49:55.214Z,96836.34
2018-07-04T20:52:35.174Z,96806.80
2018-07-04T20:55:15.022Z,96789.64
2018-07-04T20:57:54.711Z,96770.33
2018-07-04T21:00:36.971Z,96755.77
2018-07-04T21:03:16.757Z,96699.74
2018-07-04T21:05:56.714Z,96684.89
2018-07-04T21:08:36.338Z,96677.80
2018-07-04T21:11:18.130Z,96680.74
2018-07-04T21:14:00.077Z,96707.31
2018-07-04T21:16:40.535Z,96693.11
2018-07-04T21:19:20.455Z,96655.11
2018-07-04T21:22:00.296Z,96668.54
2018-07-04T21:24:39.953Z,96682.32
2018-07-04T21:27:19.751Z,96625.67
2018-07-04T21:29:59.614Z,96627.23
2018-07-04T21:32:39.594Z,96625.37
2018-07-04T21:35:19.315Z,96621.44
2018-07-04T21:37:59.159Z,96622.75
2018-07-04T21:40:38.924Z,96630.58
2018-07-04T21:43:18.869Z,96622.36
2018-07-04T21:45:58.634Z,96623.19
2018-07-04T21:48:38.578Z,96629.03
2018-07-04T21:51:18.284Z,96617.42
2018-07-04T21:53:58.145Z,96595.20
2018-07-04T21:56:37.988Z,96585.42
2018-07-04T21:59:17.820Z,96576.39
2018-07-04T22:01:57.430Z,96560.97
2018-07-04T22:04:37.179Z,96552.47
2018-07-04T22:07:16.932Z,96556.61
2018-07-04T22:09:56.729Z,96551.44
2018-07-04T22:12:36.414Z,96542.77
2018-07-04T22:15:16.047Z,96531.33
2018-07-04T22:17:55.545Z,96528.59
2018-07-04T22:20:35.302Z,96540.23
2018-07-04T22:23:14.972Z,96536.69
2018-07-04T22:25:54.738Z,96541.70
2018-07-04T22:28:34.647Z,96555.52
2018-07-04T22:31:14.401Z,96554.07
2018-07-04T22:33:54.259Z,96546.96
2018-07-04T22:36:34.098Z,96544.38
2018-07-04T22:39:13.851Z,96525.67
2018-07-04T22:41:53.623Z,96518.84
2018-07-04T22:44:33.570Z,96510.34
2018-07-04T22:47:13.297Z,96513.51
2018-07-04T22:49:52.991Z,96498.56
2018-07-04T22:52:32.690Z,96491.70
2018-07-04T22:55:12.491Z,96497.53
2018-07-04T22:57:52.201Z,96499.94
2018-07-04T23:00:31.923Z,96497.31
2018-07-04T23:03:11.682Z,96514.05
2018-07-04T23:05:51.541Z,96503.41
2018-07-04T23:08:31.451Z,96497.41
2018-07-04T23:11:11.153Z,96487.16
2018-07-04T23:13:50.844Z,96482.83
2018-07-04T23:16:30.565Z,96481.52
2018-07-04T23:19:10.470Z,96486.78
2018-07-04T23:21:50.250Z,96492.16
2018-07-04T23:24:30.042Z,96495.00
2018-07-04T23:27:09.887Z,96495.31
2018-07-04T23:29:49.686Z,96496.31
2018-07-04T23:32:29.465Z,96494.20
2018-07-04T23:35:09.235Z,96503.48
2018-07-04T23:37:49.031Z,96502.56
2018-07-04T23:40:28.699Z,96497.92
2018-07-04T23:43:08.530Z,96492.33
2018-07-04T23:45:48.501Z,96493.36
2018-07-04T23:48:28.279Z,96492.09
2018-07-04T23:51:08.195Z,96485.00
2018-07-04T23:53:47.990Z,96475.20
2018-07-04T23:56:27.660Z,96479.09
2018-07-04T23:59:07.251Z,96476.38
